This is the latest recevied weather packets stored in our database for station/object OE7MFI-13. If no packets are shown the sender has not sent any weather packets the latest 10 day(s).
| Time | Temp. | Humidity | Pressure | Rain* | Wind** | Luminosity | Snow |
|---|---|---|---|---|---|---|---|
| 1777743225 | 20° C | 35% | - | 0 mm | - | - | - |
| 1777742025 | 20° C | 36% | - | 0 mm | - | - | - |
| 1777737853 | 22.22° C | 32% | - | 0 mm | - | - | - |
| 1777737225 | 22.78° C | 30% | - | 0 mm | - | - | - |
| 1777734825 | 23.33° C | 26% | - | 0 mm | - | - | - |
| 1777733626 | 23.33° C | 22% | - | 0 mm | - | - | - |
| 1777733033 | 23.33° C | 25% | - | 0 mm | - | - | - |
| 1777730065 | 23.33° C | 25% | - | 0 mm | - | - | - |
| 1777727625 | 24.44° C | 21% | - | 0 mm | - | - | - |
| 1777726427 | 25° C | 24% | - | 0 mm | - | - | - |
| 1777719835 | 23.33° C | 28% | - | 0 mm | - | - | - |
| 1777718026 | 22.78° C | 30% | - | 0 mm | - | - | - |
| 1777717433 | 22.22° C | 29% | - | 0 mm | - | - | - |
| 1777714425 | 20.56° C | 34% | - | 0 mm | - | - | - |
| 1777713853 | 20° C | 39% | - | 0 mm | - | - | - |
| 1777713225 | 19.44° C | 40% | - | 0 mm | - | - | - |
| 1777707225 | 14.44° C | 53% | - | 0 mm | - | - | - |
| 1777700025 | 1.67° C | 89% | - | 0 mm | - | - | - |
| 1777698233 | 0.56° C | 87% | - | 0 mm | - | - | - |
| 1777687454 | 1.11° C | 86% | - | 0 mm | - | - | - |
| 1777685034 | 1.67° C | 86% | - | 0 mm | - | - | - |
| 1777682633 | 2.22° C | 84% | - | 0 mm | - | - | - |
| 1777673625 | 4.44° C | 80% | - | 0 mm | - | - | - |
| 1777671224 | 5° C | 77% | - | 0 mm | - | - | - |
| 1777670025 | 5.56° C | 77% | - | 0 mm | - | - | - |
* Rain latest hour (hover to see other rain measurements)
** Current wind speed in m/s (hover to see current wind gust speed)